sensor_id;sensor_type;location;lat;lon;timestamp;pressure;altitude;pressure_sealevel;temperature;humidity
13869;BME280;7004;48.206;16.402;2024-02-23T00:01:45;97724.84;;;9.38;85.84
13869;BME280;7004;48.206;16.402;2024-02-23T00:04:13;97725.84;;;9.37;86.23
13869;BME280;7004;48.206;16.402;2024-02-23T00:06:41;97720.00;;;9.24;87.14
13869;BME280;7004;48.206;16.402;2024-02-23T00:09:07;97730.81;;;9.21;87.01
13869;BME280;7004;48.206;16.402;2024-02-23T00:11:39;97726.50;;;9.19;87.87
13869;BME280;7004;48.206;16.402;2024-02-23T00:14:06;97736.91;;;9.11;87.77
13869;BME280;7004;48.206;16.402;2024-02-23T00:16:40;97724.69;;;9.10;88.56
13869;BME280;7004;48.206;16.402;2024-02-23T00:19:10;97724.00;;;9.08;88.08
13869;BME280;7004;48.206;16.402;2024-02-23T00:21:37;97725.38;;;9.03;88.22
13869;BME280;7004;48.206;16.402;2024-02-23T00:24:04;97718.44;;;9.02;88.25
13869;BME280;7004;48.206;16.402;2024-02-23T00:26:31;97719.84;;;9.15;87.75
13869;BME280;7004;48.206;16.402;2024-02-23T00:28:57;97724.00;;;8.99;87.34
13869;BME280;7004;48.206;16.402;2024-02-23T00:31:23;97722.06;;;9.10;87.33
13869;BME280;7004;48.206;16.402;2024-02-23T00:33:50;97729.94;;;8.91;88.28
13869;BME280;7004;48.206;16.402;2024-02-23T00:36:16;97722.91;;;9.11;87.54
13869;BME280;7004;48.206;16.402;2024-02-23T00:38:42;97714.41;;;9.07;86.78
13869;BME280;7004;48.206;16.402;2024-02-23T00:41:09;97718.56;;;9.00;87.80
13869;BME280;7004;48.206;16.402;2024-02-23T00:43:39;97728.69;;;8.85;88.54
13869;BME280;7004;48.206;16.402;2024-02-23T00:46:06;97721.75;;;8.94;86.99
13869;BME280;7004;48.206;16.402;2024-02-23T00:48:32;97715.69;;;9.03;86.70
13869;BME280;7004;48.206;16.402;2024-02-23T00:50:58;97714.41;;;9.07;86.88
13869;BME280;7004;48.206;16.402;2024-02-23T00:53:24;97718.84;;;8.97;88.07
13869;BME280;7004;48.206;16.402;2024-02-23T00:55:50;97712.88;;;9.05;88.33
13869;BME280;7004;48.206;16.402;2024-02-23T00:58:16;97715.94;;;9.10;87.99
13869;BME280;7004;48.206;16.402;2024-02-23T01:00:43;97717.19;;;8.96;88.41
13869;BME280;7004;48.206;16.402;2024-02-23T01:03:09;97727.59;;;8.98;89.44
13869;BME280;7004;48.206;16.402;2024-02-23T01:05:36;97720.25;;;9.01;88.55
13869;BME280;7004;48.206;16.402;2024-02-23T01:08:03;97730.38;;;9.06;88.77
13869;BME280;7004;48.206;16.402;2024-02-23T01:10:30;97739.53;;;9.02;89.35
13869;BME280;7004;48.206;16.402;2024-02-23T01:12:56;97729.91;;;8.81;90.61
13869;BME280;7004;48.206;16.402;2024-02-23T01:15:22;97732.56;;;8.91;90.95
13869;BME280;7004;48.206;16.402;2024-02-23T01:17:48;97721.47;;;8.87;91.86
13869;BME280;7004;48.206;16.402;2024-02-23T01:20:14;97724.41;;;9.04;91.89
13869;BME280;7004;48.206;16.402;2024-02-23T01:22:40;97711.63;;;8.99;92.02
13869;BME280;7004;48.206;16.402;2024-02-23T01:25:06;97709.28;;;8.96;92.54
13869;BME280;7004;48.206;16.402;2024-02-23T01:27:33;97712.47;;;8.90;92.68
13869;BME280;7004;48.206;16.402;2024-02-23T01:29:59;97717.72;;;8.80;92.89
13869;BME280;7004;48.206;16.402;2024-02-23T01:32:25;97721.72;;;8.74;92.78
13869;BME280;7004;48.206;16.402;2024-02-23T01:34:52;97724.47;;;8.73;93.27
13869;BME280;7004;48.206;16.402;2024-02-23T01:37:18;97723.81;;;8.81;93.08
13869;BME280;7004;48.206;16.402;2024-02-23T01:39:44;97726.16;;;8.84;93.21
13869;BME280;7004;48.206;16.402;2024-02-23T01:42:10;97717.47;;;8.93;93.19
13869;BME280;7004;48.206;16.402;2024-02-23T01:44:36;97723.84;;;8.90;93.40
13869;BME280;7004;48.206;16.402;2024-02-23T01:47:02;97721.72;;;8.74;94.29
13869;BME280;7004;48.206;16.402;2024-02-23T01:49:29;97718.28;;;8.93;93.61
13869;BME280;7004;48.206;16.402;2024-02-23T01:52:00;97715.66;;;8.93;93.59
13869;BME280;7004;48.206;16.402;2024-02-23T01:54:27;97712.59;;;8.88;94.30
13869;BME280;7004;48.206;16.402;2024-02-23T01:56:56;97712.72;;;8.87;93.93
13869;BME280;7004;48.206;16.402;2024-02-23T01:59:24;97706.06;;;8.83;94.88
13869;BME280;7004;48.206;16.402;2024-02-23T02:01:51;97712.09;;;8.64;95.84
13869;BME280;7004;48.206;16.402;2024-02-23T02:04:17;97708.78;;;8.71;95.81
13869;BME280;7004;48.206;16.402;2024-02-23T02:06:46;97705.06;;;8.64;96.05
13869;BME280;7004;48.206;16.402;2024-02-23T02:09:12;97702.25;;;8.56;96.51
13869;BME280;7004;48.206;16.402;2024-02-23T02:11:48;97706.16;;;8.71;95.66
13869;BME280;7004;48.206;16.402;2024-02-23T02:14:16;97704.53;;;8.80;95.47
13869;BME280;7004;48.206;16.402;2024-02-23T02:16:43;97710.25;;;8.85;95.05
13869;BME280;7004;48.206;16.402;2024-02-23T02:19:12;97711.91;;;8.96;95.16
13869;BME280;7004;48.206;16.402;2024-02-23T02:21:39;97712.19;;;9.03;93.86
13869;BME280;7004;48.206;16.402;2024-02-23T02:24:06;97717.47;;;8.93;94.28
13869;BME280;7004;48.206;16.402;2024-02-23T02:26:32;97720.22;;;8.91;95.30
13869;BME280;7004;48.206;16.402;2024-02-23T02:28:59;97721.75;;;8.94;94.45
13869;BME280;7004;48.206;16.402;2024-02-23T02:31:25;97723.56;;;8.93;93.62
13869;BME280;7004;48.206;16.402;2024-02-23T02:33:51;97725.78;;;8.88;94.38
13869;BME280;7004;48.206;16.402;2024-02-23T02:36:17;97730.22;;;8.88;94.13
13869;BME280;7004;48.206;16.402;2024-02-23T02:38:43;97740.44;;;8.81;94.95
13869;BME280;7004;48.206;16.402;2024-02-23T02:41:09;97744.06;;;8.80;95.08
13869;BME280;7004;48.206;16.402;2024-02-23T02:43:35;97740.03;;;8.86;94.28
13869;BME280;7004;48.206;16.402;2024-02-23T02:46:02;97753.34;;;8.84;95.20
13869;BME280;7004;48.206;16.402;2024-02-23T02:48:28;97750.44;;;8.78;96.39
13869;BME280;7004;48.206;16.402;2024-02-23T02:50:54;97761.91;;;8.67;97.93
13869;BME280;7004;48.206;16.402;2024-02-23T02:53:21;97771.63;;;8.76;97.60
13869;BME280;7004;48.206;16.402;2024-02-23T02:55:47;97768.47;;;8.82;97.33
13869;BME280;7004;48.206;16.402;2024-02-23T02:58:14;97775.41;;;8.83;97.47
13869;BME280;7004;48.206;16.402;2024-02-23T03:00:40;97771.28;;;8.90;97.79
13869;BME280;7004;48.206;16.402;2024-02-23T03:03:06;97784.13;;;8.84;98.27
13869;BME280;7004;48.206;16.402;2024-02-23T03:05:32;97786.72;;;8.74;98.78
13869;BME280;7004;48.206;16.402;2024-02-23T03:07:59;97793.25;;;8.70;99.42
13869;BME280;7004;48.206;16.402;2024-02-23T03:10:25;97785.06;;;8.73;99.52
13869;BME280;7004;48.206;16.402;2024-02-23T03:12:51;97788.69;;;8.72;99.37
13869;BME280;7004;48.206;16.402;2024-02-23T03:15:17;97781.13;;;8.58;100.00
13869;BME280;7004;48.206;16.402;2024-02-23T03:17:45;97785.06;;;8.42;100.00
13869;BME280;7004;48.206;16.402;2024-02-23T03:20:11;97779.53;;;8.45;100.00
13869;BME280;7004;48.206;16.402;2024-02-23T03:22:49;97790.69;;;8.38;100.00
13869;BME280;7004;48.206;16.402;2024-02-23T03:25:15;97789.75;;;8.39;100.00
13869;BME280;7004;48.206;16.402;2024-02-23T03:27:43;97788.31;;;8.56;100.00
13869;BME280;7004;48.206;16.402;2024-02-23T03:30:10;97794.28;;;8.58;100.00
13869;BME280;7004;48.206;16.402;2024-02-23T03:32:38;97797.03;;;8.46;100.00
13869;BME280;7004;48.206;16.402;2024-02-23T03:35:06;97802.84;;;8.29;100.00
13869;BME280;7004;48.206;16.402;2024-02-23T03:37:34;97813.97;;;8.53;100.00
13869;BME280;7004;48.206;16.402;2024-02-23T03:40:00;97823.53;;;8.55;100.00
13869;BME280;7004;48.206;16.402;2024-02-23T03:42:27;97838.53;;;8.64;100.00
13869;BME280;7004;48.206;16.402;2024-02-23T03:44:55;97866.09;;;8.39;100.00
13869;BME280;7004;48.206;16.402;2024-02-23T03:47:21;97872.41;;;8.47;100.00
13869;BME280;7004;48.206;16.402;2024-02-23T03:49:47;97878.19;;;8.41;100.00
13869;BME280;7004;48.206;16.402;2024-02-23T03:52:13;97893.63;;;8.46;100.00
13869;BME280;7004;48.206;16.402;2024-02-23T03:54:40;97894.25;;;8.59;100.00
13869;BME280;7004;48.206;16.402;2024-02-23T03:57:06;97900.19;;;8.61;100.00
13869;BME280;7004;48.206;16.402;2024-02-23T03:59:32;97900.34;;;8.60;100.00
13869;BME280;7004;48.206;16.402;2024-02-23T04:01:58;97920.16;;;8.64;100.00
13869;BME280;7004;48.206;16.402;2024-02-23T04:04:26;97915.59;;;8.56;100.00
13869;BME280;7004;48.206;16.402;2024-02-23T04:06:59;97930.41;;;8.57;100.00
13869;BME280;7004;48.206;16.402;2024-02-23T04:09:26;97972.97;;;8.41;100.00
13869;BME280;7004;48.206;16.402;2024-02-23T04:11:54;97981.00;;;8.28;100.00
13869;BME280;7004;48.206;16.402;2024-02-23T04:14:23;97979.19;;;8.40;100.00
13869;BME280;7004;48.206;16.402;2024-02-23T04:16:55;97985.97;;;8.54;100.00
13869;BME280;7004;48.206;16.402;2024-02-23T04:19:24;97986.25;;;8.72;100.00
13869;BME280;7004;48.206;16.402;2024-02-23T04:22:02;97991.81;;;8.58;100.00
13869;BME280;7004;48.206;16.402;2024-02-23T04:24:40;97992.19;;;8.74;100.00
13869;BME280;7004;48.206;16.402;2024-02-23T04:27:10;97989.81;;;8.71;100.00
13869;BME280;7004;48.206;16.402;2024-02-23T04:29:38;97993.03;;;8.53;100.00
13869;BME280;7004;48.206;16.402;2024-02-23T04:32:05;97992.59;;;8.48;100.00
13869;BME280;7004;48.206;16.402;2024-02-23T04:34:32;97994.25;;;8.70;100.00
13869;BME280;7004;48.206;16.402;2024-02-23T04:36:58;98000.72;;;8.66;100.00
13869;BME280;7004;48.206;16.402;2024-02-23T04:39:27;97994.16;;;8.72;100.00
13869;BME280;7004;48.206;16.402;2024-02-23T04:41:54;97993.06;;;8.74;100.00
13869;BME280;7004;48.206;16.402;2024-02-23T04:44:21;97990.91;;;8.68;100.00
13869;BME280;7004;48.206;16.402;2024-02-23T04:46:47;98010.25;;;8.58;100.00
13869;BME280;7004;48.206;16.402;2024-02-23T04:49:14;98001.13;;;8.62;100.00
13869;BME280;7004;48.206;16.402;2024-02-23T04:51:41;97998.25;;;8.65;100.00
13869;BME280;7004;48.206;16.402;2024-02-23T04:54:08;98007.09;;;8.64;100.00
13869;BME280;7004;48.206;16.402;2024-02-23T04:56:35;98005.22;;;8.55;100.00
13869;BME280;7004;48.206;16.402;2024-02-23T04:59:01;98001.34;;;8.70;100.00
13869;BME280;7004;48.206;16.402;2024-02-23T05:01:28;98013.06;;;8.66;100.00
13869;BME280;7004;48.206;16.402;2024-02-23T05:03:55;98015.59;;;8.67;100.00
13869;BME280;7004;48.206;16.402;2024-02-23T05:06:22;98009.88;;;8.62;100.00
13869;BME280;7004;48.206;16.402;2024-02-23T05:08:48;98013.66;;;8.48;100.00
13869;BME280;7004;48.206;16.402;2024-02-23T05:11:15;98025.78;;;8.61;100.00
13869;BME280;7004;48.206;16.402;2024-02-23T05:13:55;98028.41;;;8.72;100.00
13869;BME280;7004;48.206;16.402;2024-02-23T05:16:21;98035.38;;;8.62;100.00
13869;BME280;7004;48.206;16.402;2024-02-23T05:18:47;98034.03;;;8.67;100.00
13869;BME280;7004;48.206;16.402;2024-02-23T05:21:17;98041.13;;;8.56;100.00
13869;BME280;7004;48.206;16.402;2024-02-23T05:23:43;98049.56;;;8.70;100.00
13869;BME280;7004;48.206;16.402;2024-02-23T05:26:09;98049.78;;;8.79;100.00
13869;BME280;7004;48.206;16.402;2024-02-23T05:28:36;98045.34;;;8.79;100.00
13869;BME280;7004;48.206;16.402;2024-02-23T05:31:04;98059.38;;;8.80;100.00
13869;BME280;7004;48.206;16.402;2024-02-23T05:33:30;98057.75;;;8.88;100.00
13869;BME280;7004;48.206;16.402;2024-02-23T05:35:56;98060.84;;;8.93;100.00
13869;BME280;7004;48.206;16.402;2024-02-23T05:38:23;98066.88;;;8.84;100.00
13869;BME280;7004;48.206;16.402;2024-02-23T05:40:49;98074.78;;;8.84;100.00
13869;BME280;7004;48.206;16.402;2024-02-23T05:43:15;98076.09;;;8.90;100.00
13869;BME280;7004;48.206;16.402;2024-02-23T05:45:41;98080.31;;;8.81;100.00
13869;BME280;7004;48.206;16.402;2024-02-23T05:48:08;98082.47;;;8.76;100.00
13869;BME280;7004;48.206;16.402;2024-02-23T05:50:34;98091.00;;;8.80;100.00
13869;BME280;7004;48.206;16.402;2024-02-23T05:53:01;98084.03;;;8.79;100.00
13869;BME280;7004;48.206;16.402;2024-02-23T05:55:27;98081.09;;;8.93;99.37
13869;BME280;7004;48.206;16.402;2024-02-23T05:57:53;98085.03;;;8.99;98.15
13869;BME280;7004;48.206;16.402;2024-02-23T06:00:19;98091.47;;;9.06;96.28
13869;BME280;7004;48.206;16.402;2024-02-23T06:02:48;98089.97;;;9.13;93.95
13869;BME280;7004;48.206;16.402;2024-02-23T06:05:14;98101.47;;;8.91;94.94
13869;BME280;7004;48.206;16.402;2024-02-23T06:07:41;98104.44;;;8.98;94.19
13869;BME280;7004;48.206;16.402;2024-02-23T06:10:08;98106.69;;;9.02;94.08
13869;BME280;7004;48.206;16.402;2024-02-23T06:12:34;98112.47;;;8.96;94.10
13869;BME280;7004;48.206;16.402;2024-02-23T06:15:01;98111.66;;;9.16;91.37
13869;BME280;7004;48.206;16.402;2024-02-23T06:17:27;98128.81;;;9.11;92.44
13869;BME280;7004;48.206;16.402;2024-02-23T06:19:53;98115.97;;;9.17;91.62
13869;BME280;7004;48.206;16.402;2024-02-23T06:22:22;98129.06;;;9.08;92.02
13869;BME280;7004;48.206;16.402;2024-02-23T06:24:49;98118.19;;;9.01;90.10
13869;BME280;7004;48.206;16.402;2024-02-23T06:27:16;98129.06;;;9.08;91.30
13869;BME280;7004;48.206;16.402;2024-02-23T06:29:43;98126.19;;;9.11;89.49
13869;BME280;7004;48.206;16.402;2024-02-23T06:32:09;98125.09;;;9.13;88.58
13869;BME280;7004;48.206;16.402;2024-02-23T06:34:35;98144.56;;;9.01;88.78
13869;BME280;7004;48.206;16.402;2024-02-23T06:37:01;98133.47;;;9.18;87.69
13869;BME280;7004;48.206;16.402;2024-02-23T06:39:27;98154.13;;;9.02;87.37
13869;BME280;7004;48.206;16.402;2024-02-23T06:41:53;98145.97;;;9.05;89.42
13869;BME280;7004;48.206;16.402;2024-02-23T06:44:19;98150.78;;;9.00;89.13
13869;BME280;7004;48.206;16.402;2024-02-23T06:46:45;98155.72;;;8.93;87.18
13869;BME280;7004;48.206;16.402;2024-02-23T06:49:11;98151.53;;;8.91;87.95
13869;BME280;7004;48.206;16.402;2024-02-23T06:51:38;98145.00;;;9.06;87.05
13869;BME280;7004;48.206;16.402;2024-02-23T06:54:06;98152.31;;;9.03;88.59
13869;BME280;7004;48.206;16.402;2024-02-23T06:56:33;98155.34;;;8.98;87.13
13869;BME280;7004;48.206;16.402;2024-02-23T06:59:00;98161.56;;;8.97;88.86
13869;BME280;7004;48.206;16.402;2024-02-23T07:01:26;98151.38;;;9.04;89.64
13869;BME280;7004;48.206;16.402;2024-02-23T07:03:53;98168.13;;;9.03;87.14
13869;BME280;7004;48.206;16.402;2024-02-23T07:06:19;98162.94;;;9.24;86.49
13869;BME280;7004;48.206;16.402;2024-02-23T07:08:46;98162.50;;;9.28;85.46
13869;BME280;7004;48.206;16.402;2024-02-23T07:11:12;98163.16;;;9.41;86.31
13869;BME280;7004;48.206;16.402;2024-02-23T07:13:38;98170.97;;;9.43;86.03
13869;BME280;7004;48.206;16.402;2024-02-23T07:16:05;98176.16;;;9.33;85.93
13869;BME280;7004;48.206;16.402;2024-02-23T07:18:31;98187.94;;;9.29;86.57
13869;BME280;7004;48.206;16.402;2024-02-23T07:20:58;98183.63;;;9.28;85.69
13869;BME280;7004;48.206;16.402;2024-02-23T07:23:24;98190.31;;;9.32;85.34
13869;BME280;7004;48.206;16.402;2024-02-23T07:25:50;98194.75;;;9.32;84.45
13869;BME280;7004;48.206;16.402;2024-02-23T07:28:16;98206.06;;;9.23;83.36
13869;BME280;7004;48.206;16.402;2024-02-23T07:30:45;98208.06;;;9.30;83.07
13869;BME280;7004;48.206;16.402;2024-02-23T07:33:12;98223.25;;;9.38;82.82
13869;BME280;7004;48.206;16.402;2024-02-23T07:35:38;98228.63;;;9.48;81.29
13869;BME280;7004;48.206;16.402;2024-02-23T07:38:04;98235.16;;;9.32;81.50
13869;BME280;7004;48.206;16.402;2024-02-23T07:40:30;98237.81;;;9.53;81.39
13869;BME280;7004;48.206;16.402;2024-02-23T07:42:57;98246.94;;;9.49;81.78
13869;BME280;7004;48.206;16.402;2024-02-23T07:45:24;98257.03;;;9.44;81.69
13869;BME280;7004;48.206;16.402;2024-02-23T07:47:50;98265.81;;;9.45;79.81
13869;BME280;7004;48.206;16.402;2024-02-23T07:50:16;98263.16;;;9.45;80.15
13869;BME280;7004;48.206;16.402;2024-02-23T07:52:44;98263.84;;;9.47;81.73
13869;BME280;7004;48.206;16.402;2024-02-23T07:55:10;98262.44;;;9.43;82.74
13869;BME280;7004;48.206;16.402;2024-02-23T07:57:37;98258.19;;;9.51;83.61
13869;BME280;7004;48.206;16.402;2024-02-23T08:00:06;98268.81;;;9.40;85.66
13869;BME280;7004;48.206;16.402;2024-02-23T08:02:36;98279.75;;;9.24;85.95
13869;BME280;7004;48.206;16.402;2024-02-23T08:05:02;98288.13;;;9.29;84.18
13869;BME280;7004;48.206;16.402;2024-02-23T08:07:31;98279.75;;;9.24;84.49
13869;BME280;7004;48.206;16.402;2024-02-23T08:09:58;98282.78;;;9.52;85.94
13869;BME280;7004;48.206;16.402;2024-02-23T08:12:25;98283.75;;;9.51;85.09
13869;BME280;7004;48.206;16.402;2024-02-23T08:14:51;98289.91;;;9.40;85.05
13869;BME280;7004;48.206;16.402;2024-02-23T08:17:19;98294.09;;;9.43;87.18
13869;BME280;7004;48.206;16.402;2024-02-23T08:19:46;98297.44;;;9.45;88.91
13869;BME280;7004;48.206;16.402;2024-02-23T08:22:15;98306.81;;;9.37;92.56
13869;BME280;7004;48.206;16.402;2024-02-23T08:24:41;98308.63;;;9.37;91.56
13869;BME280;7004;48.206;16.402;2024-02-23T08:27:07;98294.25;;;9.30;92.53
13869;BME280;7004;48.206;16.402;2024-02-23T08:29:33;98293.75;;;9.36;95.31
13869;BME280;7004;48.206;16.402;2024-02-23T08:31:59;98306.19;;;9.45;93.18
13869;BME280;7004;48.206;16.402;2024-02-23T08:34:25;98314.72;;;9.37;96.37
13869;BME280;7004;48.206;16.402;2024-02-23T08:36:51;98317.22;;;9.39;92.23
13869;BME280;7004;48.206;16.402;2024-02-23T08:39:17;98308.94;;;9.44;90.43
13869;BME280;7004;48.206;16.402;2024-02-23T08:41:43;98316.28;;;9.40;95.59
13869;BME280;7004;48.206;16.402;2024-02-23T08:44:09;98325.75;;;9.43;92.01
13869;BME280;7004;48.206;16.402;2024-02-23T08:46:35;98336.06;;;9.34;90.24
13869;BME280;7004;48.206;16.402;2024-02-23T08:49:05;98330.53;;;9.37;88.27
13869;BME280;7004;48.206;16.402;2024-02-23T08:51:31;98326.94;;;9.50;87.52
13869;BME280;7004;48.206;16.402;2024-02-23T08:53:57;98328.53;;;9.62;84.65
13869;BME280;7004;48.206;16.402;2024-02-23T08:56:28;98327.03;;;9.48;88.61
13869;BME280;7004;48.206;16.402;2024-02-23T08:58:55;98336.91;;;9.67;93.50
13869;BME280;7004;48.206;16.402;2024-02-23T09:01:21;98333.59;;;9.65;90.13
13869;BME280;7004;48.206;16.402;2024-02-23T09:03:47;98335.41;;;9.53;86.15
13869;BME280;7004;48.206;16.402;2024-02-23T09:06:13;98334.25;;;9.78;90.06
13869;BME280;7004;48.206;16.402;2024-02-23T09:08:40;98337.06;;;9.66;89.63
13869;BME280;7004;48.206;16.402;2024-02-23T09:11:07;98339.53;;;9.78;88.56
13869;BME280;7004;48.206;16.402;2024-02-23T09:13:32;98336.38;;;9.84;89.77
13869;BME280;7004;48.206;16.402;2024-02-23T09:15:58;98339.41;;;9.80;88.02
13869;BME280;7004;48.206;16.402;2024-02-23T09:18:24;98348.19;;;9.69;87.44
13869;BME280;7004;48.206;16.402;2024-02-23T09:20:50;98352.28;;;9.73;88.85
13869;BME280;7004;48.206;16.402;2024-02-23T09:23:17;98357.41;;;9.75;86.83
13869;BME280;7004;48.206;16.402;2024-02-23T09:25:43;98354.72;;;9.54;83.90
13869;BME280;7004;48.206;16.402;2024-02-23T09:28:09;98359.00;;;9.66;84.97
13869;BME280;7004;48.206;16.402;2024-02-23T09:30:37;98364.69;;;9.50;83.47
13869;BME280;7004;48.206;16.402;2024-02-23T09:33:04;98368.78;;;9.43;86.29
13869;BME280;7004;48.206;16.402;2024-02-23T09:35:30;98367.53;;;9.58;85.48
13869;BME280;7004;48.206;16.402;2024-02-23T09:37:56;98371.00;;;9.59;82.55
13869;BME280;7004;48.206;16.402;2024-02-23T09:40:22;98370.44;;;9.55;82.55
13869;BME280;7004;48.206;16.402;2024-02-23T09:42:58;98379.91;;;9.58;86.57
13869;BME280;7004;48.206;16.402;2024-02-23T09:45:28;98384.56;;;9.66;84.62
13869;BME280;7004;48.206;16.402;2024-02-23T09:47:57;98385.22;;;10.11;85.06
13869;BME280;7004;48.206;16.402;2024-02-23T09:50:24;98380.72;;;10.02;85.69
13869;BME280;7004;48.206;16.402;2024-02-23T09:52:50;98375.19;;;11.29;86.48
13869;BME280;7004;48.206;16.402;2024-02-23T09:55:26;98379.94;;;10.95;78.93
13869;BME280;7004;48.206;16.402;2024-02-23T09:57:55;98371.38;;;11.72;80.37
13869;BME280;7004;48.206;16.402;2024-02-23T10:00:24;98374.88;;;11.82;76.46
13869;BME280;7004;48.206;16.402;2024-02-23T10:02:50;98374.91;;;12.02;70.98
13869;BME280;7004;48.206;16.402;2024-02-23T10:05:17;98375.53;;;11.55;78.47
13869;BME280;7004;48.206;16.402;2024-02-23T10:07:43;98369.59;;;11.13;75.48
13869;BME280;7004;48.206;16.402;2024-02-23T10:10:10;98365.41;;;11.70;75.88
13869;BME280;7004;48.206;16.402;2024-02-23T10:12:39;98362.09;;;10.87;75.23
13869;BME280;7004;48.206;16.402;2024-02-23T10:15:06;98356.81;;;11.28;79.63
13869;BME280;7004;48.206;16.402;2024-02-23T10:17:32;98346.56;;;11.04;75.02
13869;BME280;7004;48.206;16.402;2024-02-23T10:20:01;98347.06;;;11.88;76.29
13869;BME280;7004;48.206;16.402;2024-02-23T10:22:31;98349.66;;;11.09;79.13
13869;BME280;7004;48.206;16.402;2024-02-23T10:24:57;98345.53;;;10.85;80.92
13869;BME280;7004;48.206;16.402;2024-02-23T10:27:23;98342.47;;;10.59;83.85
13869;BME280;7004;48.206;16.402;2024-02-23T10:29:50;98337.38;;;10.04;82.46
13869;BME280;7004;48.206;16.402;2024-02-23T10:32:19;98324.19;;;10.25;85.42
13869;BME280;7004;48.206;16.402;2024-02-23T10:34:49;98335.56;;;10.05;83.22
13869;BME280;7004;48.206;16.402;2024-02-23T10:37:16;98332.81;;;10.06;84.40
13869;BME280;7004;48.206;16.402;2024-02-23T10:39:42;98343.25;;;10.29;84.47
13869;BME280;7004;48.206;16.402;2024-02-23T10:42:09;98338.66;;;9.89;85.71
13869;BME280;7004;48.206;16.402;2024-02-23T10:44:37;98325.19;;;10.13;80.74
13869;BME280;7004;48.206;16.402;2024-02-23T10:47:05;98320.94;;;10.33;80.79
13869;BME280;7004;48.206;16.402;2024-02-23T10:49:33;98315.66;;;10.22;81.92
13869;BME280;7004;48.206;16.402;2024-02-23T10:52:00;98304.88;;;10.25;81.40
13869;BME280;7004;48.206;16.402;2024-02-23T10:54:28;98312.03;;;10.34;84.07
13869;BME280;7004;48.206;16.402;2024-02-23T10:56:56;98305.69;;;10.25;80.60
13869;BME280;7004;48.206;16.402;2024-02-23T10:59:22;98298.31;;;10.40;82.48
13869;BME280;7004;48.206;16.402;2024-02-23T11:01:53;98297.88;;;10.35;82.44
13869;BME280;7004;48.206;16.402;2024-02-23T11:04:22;98298.75;;;10.45;84.05
13869;BME280;7004;48.206;16.402;2024-02-23T11:06:55;98309.47;;;10.12;82.15
13869;BME280;7004;48.206;16.402;2024-02-23T11:09:24;98314.19;;;10.08;84.01
13869;BME280;7004;48.206;16.402;2024-02-23T11:11:53;98307.50;;;10.04;84.33
13869;BME280;7004;48.206;16.402;2024-02-23T11:14:34;98293.34;;;10.05;86.59
13869;BME280;7004;48.206;16.402;2024-02-23T11:17:02;98290.81;;;10.03;85.08
13869;BME280;7004;48.206;16.402;2024-02-23T11:19:36;98290.88;;;9.92;85.63
13869;BME280;7004;48.206;16.402;2024-02-23T11:22:03;98282.44;;;10.19;86.65
13869;BME280;7004;48.206;16.402;2024-02-23T11:24:31;98279.41;;;10.24;84.53
13869;BME280;7004;48.206;16.402;2024-02-23T11:26:58;98294.94;;;9.96;82.88
13869;BME280;7004;48.206;16.402;2024-02-23T11:29:29;98308.31;;;9.83;82.94
13869;BME280;7004;48.206;16.402;2024-02-23T11:31:56;98300.31;;;9.74;85.56
13869;BME280;7004;48.206;16.402;2024-02-23T11:34:27;98308.81;;;9.77;86.25
13869;BME280;7004;48.206;16.402;2024-02-23T11:36:53;98308.75;;;9.68;85.84
13869;BME280;7004;48.206;16.402;2024-02-23T11:39:20;98302.25;;;9.72;86.91
13869;BME280;7004;48.206;16.402;2024-02-23T11:41:50;98291.72;;;10.14;85.79
13869;BME280;7004;48.206;16.402;2024-02-23T11:44:17;98296.09;;;9.82;87.35
13869;BME280;7004;48.206;16.402;2024-02-23T11:46:44;98290.06;;;9.92;86.13
13869;BME280;7004;48.206;16.402;2024-02-23T11:49:14;98290.69;;;9.84;86.96
13869;BME280;7004;48.206;16.402;2024-02-23T11:51:41;98282.91;;;9.50;89.85
13869;BME280;7004;48.206;16.402;2024-02-23T11:54:07;98288.63;;;9.88;87.01
13869;BME280;7004;48.206;16.402;2024-02-23T11:56:34;98286.38;;;9.51;91.13
13869;BME280;7004;48.206;16.402;2024-02-23T11:59:01;98291.84;;;9.70;90.93
13869;BME280;7004;48.206;16.402;2024-02-23T12:01:30;98282.22;;;9.69;91.90
13869;BME280;7004;48.206;16.402;2024-02-23T12:03:57;98269.88;;;9.70;90.13
13869;BME280;7004;48.206;16.402;2024-02-23T12:06:24;98265.09;;;9.63;91.60
13869;BME280;7004;48.206;16.402;2024-02-23T12:08:55;98265.56;;;9.69;93.81
13869;BME280;7004;48.206;16.402;2024-02-23T12:11:21;98269.94;;;9.79;93.44
13869;BME280;7004;48.206;16.402;2024-02-23T12:13:47;98266.13;;;9.51;93.48
13869;BME280;7004;48.206;16.402;2024-02-23T12:16:14;98268.09;;;9.91;93.72
13869;BME280;7004;48.206;16.402;2024-02-23T12:18:40;98256.22;;;9.65;94.46
13869;BME280;7004;48.206;16.402;2024-02-23T12:21:08;98255.66;;;9.61;94.20
13869;BME280;7004;48.206;16.402;2024-02-23T12:23:45;98248.00;;;9.79;93.94
13869;BME280;7004;48.206;16.402;2024-02-23T12:26:14;98249.47;;;9.51;96.06
13869;BME280;7004;48.206;16.402;2024-02-23T12:28:41;98246.66;;;9.63;95.67
13869;BME280;7004;48.206;16.402;2024-02-23T12:31:08;98249.00;;;9.46;96.70
13869;BME280;7004;48.206;16.402;2024-02-23T12:33:39;98235.34;;;9.40;95.05
13869;BME280;7004;48.206;16.402;2024-02-23T12:36:07;98233.63;;;9.51;97.18
13869;BME280;7004;48.206;16.402;2024-02-23T12:38:34;98235.88;;;9.34;97.06
13869;BME280;7004;48.206;16.402;2024-02-23T12:41:02;98235.56;;;9.49;97.59
13869;BME280;7004;48.206;16.402;2024-02-23T12:43:28;98222.28;;;9.39;99.02
13869;BME280;7004;48.206;16.402;2024-02-23T12:45:57;98226.00;;;9.36;99.07
13869;BME280;7004;48.206;16.402;2024-02-23T12:48:23;98208.91;;;9.31;100.00
13869;BME280;7004;48.206;16.402;2024-02-23T12:50:51;98215.19;;;9.18;100.00
13869;BME280;7004;48.206;16.402;2024-02-23T12:53:38;98209.78;;;9.20;100.00
13869;BME280;7004;48.206;16.402;2024-02-23T12:56:07;98211.19;;;8.92;100.00
13869;BME280;7004;48.206;16.402;2024-02-23T12:58:42;98219.38;;;8.66;100.00
13869;BME280;7004;48.206;16.402;2024-02-23T13:01:10;98222.06;;;8.99;100.00
13869;BME280;7004;48.206;16.402;2024-02-23T13:03:38;98213.91;;;9.02;100.00
13869;BME280;7004;48.206;16.402;2024-02-23T13:06:11;98216.47;;;8.81;100.00
13869;BME280;7004;48.206;16.402;2024-02-23T13:08:38;98210.38;;;8.80;100.00